Upstream stations:
Downstream station:
SHEF ID: IOLK1 NEOSHO RIVER NEAR IOLA
STATION TYPE:
Regulating: Stage = 15.00, Flow = 18228
PRECIP STAGE RIV-FLOW BAT-LOAD
in ft cfs volt
Ccp-Rev Ccp-Rev Ccp-Rev Ccp-Rev
(US/Central)
03/30 00:00 0.63 7.32 571 12.66
03/30 01:00 0.70 7.46 759 12.63
03/30 02:00 0.00 7.66 1070 12.60
03/30 03:00 0.00 7.96 1628 12.57
03/30 04:00 0.00 8.31 2414 12.56
03/30 05:00 0.00 8.60 3173 12.54
03/30 06:00 0.00 8.84 3874 12.53
03/30 07:00 0.00 8.97 4281 12.52
03/30 08:00 0.00 9.11 4752 12.50
03/30 09:00 0.00 9.24 5214 12.52
03/30 10:00 0.00 9.34 5583 12.59
03/30 11:00 0.00 9.47 6080 12.75
03/30 12:00 0.00 9.55 6396 12.96
03/30 13:00 0.00 9.62 6678 13.26
03/30 14:00 0.00 9.70 7008 13.29
03/30 15:00 0.01 9.70 7008 13.39
03/30 16:00 0.00 9.68 6925 13.42
03/30 17:00 0.00 9.68 6925 13.01
03/30 18:00 0.01 9.67 6883 13.04
03/30 19:00 0.00 9.60 6597 12.73
03/30 20:00 0.00 9.52 6277 12.64
03/30 21:00 0.00 9.40 5810 12.61
03/30 22:00 0.00 9.35 5621 12.57
03/30 23:00 0.00 9.32 5508 12.53